createdAt,value
2023-03-22T00:00:48.030Z,1.00
2023-03-22T00:06:20.191Z,1.00
2023-03-22T00:11:52.212Z,1.00
2023-03-22T00:17:23.941Z,1.00
2023-03-22T00:22:55.770Z,0.00
2023-03-22T00:28:27.629Z,1.00
2023-03-22T00:33:59.484Z,0.00
2023-03-22T00:39:31.185Z,1.00
2023-03-22T00:45:02.943Z,1.00
2023-03-22T00:50:35.012Z,1.00
2023-03-22T00:56:06.663Z,0.00
2023-03-22T01:01:38.412Z,1.00
2023-03-22T01:07:10.141Z,1.00
2023-03-22T01:12:42.147Z,0.00
2023-03-22T01:18:14.045Z,1.00
2023-03-22T01:23:46.186Z,1.00
2023-03-22T01:29:17.730Z,1.00
2023-03-22T01:34:49.809Z,1.00
2023-03-22T01:40:22.008Z,1.00
2023-03-22T01:45:53.927Z,1.00
2023-03-22T01:51:25.516Z,1.00
2023-03-22T01:56:57.461Z,0.00
2023-03-22T02:02:29.216Z,1.00
2023-03-22T02:08:01.585Z,1.00
2023-03-22T02:13:33.662Z,0.00
2023-03-22T02:19:05.385Z,0.00
2023-03-22T02:24:37.269Z,1.00
2023-03-22T02:30:09.478Z,0.00
2023-03-22T02:35:41.707Z,1.00
2023-03-22T02:41:14.003Z,0.00
2023-03-22T02:46:46.379Z,0.00
2023-03-22T02:52:18.164Z,1.00
2023-03-22T02:57:50.113Z,1.00
2023-03-22T03:03:22.329Z,1.00
2023-03-22T03:08:54.283Z,1.00
2023-03-22T03:14:26.514Z,1.00
2023-03-22T03:19:58.604Z,1.00
2023-03-22T03:25:30.888Z,1.00
2023-03-22T03:31:04.190Z,0.00
2023-03-22T03:36:36.392Z,1.00
2023-03-22T03:42:07.931Z,0.00
2023-03-22T03:47:39.975Z,1.00
2023-03-22T03:58:41.015Z,0.00
2023-03-22T04:04:13.110Z,1.00
2023-03-22T04:09:44.682Z,1.00
2023-03-22T04:15:16.655Z,1.00
2023-03-22T04:17:40.731Z,1.00
2023-03-22T04:23:12.254Z,0.00
2023-03-22T04:28:44.019Z,1.00
2023-03-22T04:34:15.426Z,2.00
2023-03-22T04:45:17.103Z,11.00
2023-03-22T04:50:48.898Z,30.00
2023-03-22T04:56:20.640Z,93.00
2023-03-22T05:01:52.714Z,253.00
2023-03-22T05:07:24.897Z,591.00
2023-03-22T05:12:56.715Z,1556.00
2023-03-22T05:18:28.419Z,2503.00
2023-03-22T05:23:59.920Z,4383.00
2023-03-22T05:29:32.863Z,11489.00
2023-03-22T05:35:04.998Z,26884.00
2023-03-22T05:40:37.087Z,34557.00
2023-03-22T05:46:09.098Z,37889.00
2023-03-22T05:51:41.134Z,33309.00
2023-03-22T05:57:13.129Z,32602.00
2023-03-22T06:02:45.400Z,32999.00
2023-03-22T06:13:46.691Z,37889.00
2023-03-22T06:19:18.796Z,37889.00
2023-03-22T06:24:50.321Z,37889.00
2023-03-22T06:30:22.615Z,37889.00
2023-03-22T06:35:54.045Z,37889.00
2023-03-22T06:41:25.790Z,37889.00
2023-03-22T06:46:57.535Z,37889.00
2023-03-22T06:52:29.575Z,37889.00
2023-03-22T06:58:01.356Z,37889.00
2023-03-22T07:03:32.799Z,37889.00
2023-03-22T07:09:04.435Z,37889.00
2023-03-22T07:14:36.301Z,37889.00
2023-03-22T07:20:08.240Z,37889.00
2023-03-22T07:25:39.976Z,37889.00
2023-03-22T07:31:11.826Z,37889.00
2023-03-22T07:36:43.495Z,37889.00
2023-03-22T07:42:15.786Z,37889.00
2023-03-22T07:47:48.096Z,37889.00
2023-03-22T07:53:20.427Z,37889.00
2023-03-22T07:58:52.051Z,37889.00
2023-03-22T08:04:23.724Z,37889.00
2023-03-22T08:09:55.771Z,37889.00
2023-03-22T08:15:26.913Z,37889.00
2023-03-22T08:20:58.339Z,37889.00
2023-03-22T08:26:29.902Z,37889.00
2023-03-22T08:32:01.888Z,37889.00
2023-03-22T08:37:33.158Z,37889.00
2023-03-22T08:43:05.001Z,37889.00
2023-03-22T08:48:36.787Z,37889.00
2023-03-22T08:54:08.892Z,37889.00
2023-03-22T08:59:41.070Z,37889.00
2023-03-22T09:05:12.533Z,37889.00
2023-03-22T09:10:44.326Z,37889.00
2023-03-22T09:16:16.315Z,37889.00
2023-03-22T09:21:47.559Z,37889.00
2023-03-22T09:27:19.432Z,35172.00
2023-03-22T09:32:51.332Z,33817.00
2023-03-22T09:38:23.635Z,32140.00
2023-03-22T09:43:55.520Z,31732.00
2023-03-22T09:49:27.850Z,26321.00
2023-03-22T09:54:59.642Z,27068.00
2023-03-22T10:00:31.556Z,27574.00
2023-03-22T10:06:03.255Z,26871.00
2023-03-22T10:11:35.048Z,26908.00
2023-03-22T10:17:07.054Z,27175.00
2023-03-22T10:22:45.231Z,26960.00
2023-03-22T10:28:17.123Z,27479.00
2023-03-22T10:33:48.976Z,28746.00
2023-03-22T10:39:20.891Z,27964.00
2023-03-22T10:44:52.613Z,27186.00
2023-03-22T10:50:24.341Z,26793.00
2023-03-22T10:55:56.268Z,25368.00
2023-03-22T11:01:28.485Z,26057.00
2023-03-22T11:06:59.912Z,26282.00
2023-03-22T11:12:32.081Z,25752.00
2023-03-22T11:18:04.097Z,24518.00
2023-03-22T11:23:36.071Z,25017.00
2023-03-22T11:29:08.085Z,23467.00
2023-03-22T11:34:40.064Z,23089.00
2023-03-22T11:40:12.224Z,22530.00
2023-03-22T11:45:44.186Z,21888.00
2023-03-22T11:51:16.941Z,21362.00
2023-03-22T11:56:48.044Z,20829.00
2023-03-22T12:02:20.212Z,20465.00
2023-03-22T12:07:52.053Z,19931.00
2023-03-22T12:13:23.962Z,19809.00
2023-03-22T12:18:56.080Z,19572.00
2023-03-22T12:24:28.419Z,19142.00
2023-03-22T12:30:00.268Z,18628.00
2023-03-22T12:35:33.111Z,18132.00
2023-03-22T12:41:04.767Z,18292.00
2023-03-22T12:46:37.011Z,18013.00
2023-03-22T12:52:08.736Z,17788.00
2023-03-22T12:57:40.884Z,18090.00
2023-03-22T13:03:14.373Z,18211.00
2023-03-22T13:08:46.143Z,17465.00
2023-03-22T13:14:18.342Z,18387.00
2023-03-22T13:19:50.340Z,17811.00
2023-03-22T13:25:22.037Z,17661.00
2023-03-22T13:30:54.060Z,17464.00
2023-03-22T13:36:26.312Z,17377.00
2023-03-22T13:41:58.794Z,18064.00
2023-03-22T13:47:30.765Z,17187.00
2023-03-22T13:53:02.615Z,16784.00
2023-03-22T13:58:34.624Z,17834.00
2023-03-22T14:04:06.613Z,19398.00
2023-03-22T14:09:39.153Z,18506.00
2023-03-22T14:15:11.103Z,19764.00
2023-03-22T14:20:43.772Z,20411.00
